Latest Weather Observations for Williamtown

IDN60901

Issued at 3:21 am EDT Wednesday 19 February 2020 (issued every 10 minutes, with the page automatically refreshed every 10 minutes)

About weather observations | Map of Sydney area stations | Latest observations for Sydney area | Other Formats
Station Details ID: 061078 Name: WILLIAMTOWN RAAF Lat: -32.79 Lon: 151.84 Height: 7.5 m
Data from the previous 72 hours. | See also: Recent months at Williamtown
Date/Time
EDT
Temp
°C
App
Temp
°C
Dew
Point
°C
Rel
Hum
%
Delta-T
°C
Wind Press
QNH
hPa
Press
MSL
hPa
Rain since
9am
mm
Dir  Spd
km/h
Gust
km/h
Spd
kts
Gust
kts
19/03:00am 21.4 20.9 19.9 91 1.0 N 22 33 12 18 1003.2 1003.2 4.6
19/02:57am 21.4 20.1 19.9 91 1.0 N 26 39 14 21 1002.5 1002.5 4.6
19/02:47am 21.3 19.6 19.9 92 0.9 NNW 28 44 15 24 1003.5 1003.5 4.4
19/02:45am 21.4 19.8 20.0 92 0.9 NNW 28 44 15 24 1003.9 1003.9 4.4
19/02:30am 22.4 20.0 19.9 86 1.6 NW 32 52 17 28 1004.3 1004.3 3.8
19/02:29am 22.5 19.8 19.7 84 1.8 WNW 33 56 18 30 1004.3 1004.3 3.8
19/02:22am 23.5 20.0 17.5 69 3.7 W 32 56 17 30 1003.4 1003.4 2.8
19/02:20am 22.1 18.7 18.1 78 2.5 W 33 56 18 30 1003.8 1003.8 1.8
19/02:17am 23.0 21.3 19.8 82 2.1 W 28 50 15 27 1003.4 1003.4 0.2
19/02:15am 23.7 22.3 19.6 78 2.6 W 26 39 14 21 1003.3 1003.3 0.0
19/02:00am 24.0 25.7 19.3 75 3.0 W 9 13 5 7 1003.0 1003.0 0.0
19/01:30am 23.6 25.2 19.9 80 2.4 SE 11 13 6 7 1002.2 1002.2 0.0
19/01:00am 24.7 24.1 18.9 70 3.7 S 20 28 11 15 1002.9 1002.9 0.0
19/12:30am 25.9 24.4 19.5 68 4.1 S 26 35 14 19 1002.3 1002.3 0.0
19/12:26am 25.5 25.3 19.4 69 3.9 SSE 19 35 10 19 1002.4 1002.4 0.0
19/12:00am 26.2 27.7 18.9 64 4.7 N 9 11 5 6 1001.7 1001.7 0.0
 
Date/Time
EDT
Temp
°C
App
Temp
°C
Dew
Point
°C
Rel
Hum
%
Delta-T
°C
Wind Press
QNH
hPa
Press
MSL
hPa
Rain since
9am
mm
Dir  Spd
km/h
Gust
km/h
Spd
kts
Gust
kts
18/11:30pm 26.6 27.9 18.5 61 5.2 NE 9 11 5 6 1001.8 1001.8 0.0
18/11:00pm 26.8 28.5 18.4 60 5.4 N 7 11 4 6 1002.2 1002.2 0.0
18/10:30pm 27.5 28.9 17.9 55 6.1 NNE 7 11 4 6 1002.7 1002.7 0.0
18/10:00pm 27.9 28.4 17.4 52 6.6 N 11 15 6 8 1003.5 1003.5 0.0
18/09:30pm 28.7 27.8 16.9 48 7.4 NNE 17 26 9 14 1003.1 1003.1 0.0
18/09:00pm 28.9 28.1 17.1 49 7.4 NNE 17 26 9 14 1003.1 1003.1 0.0
18/08:30pm 28.7 28.6 18.8 55 6.4 NNE 17 26 9 14 1002.7 1002.7 0.0
18/08:00pm 28.8 28.9 19.1 55 6.3 NE 17 24 9 13 1003.0 1003.0 0.0
18/07:30pm 29.6 28.4 18.4 51 7.2 NE 22 35 12 19 1003.0 1003.0 0.0
18/07:00pm 30.0 30.1 19.1 52 7.1 NE 17 26 9 14 1003.3 1003.3 0.0
18/06:30pm 31.2 30.9 19.5 49 7.7 ENE 20 28 11 15 1003.6 1003.6 0.0
18/06:00pm 31.8 32.3 20.1 50 7.8 NE 17 26 9 14 1004.0 1004.0 0.0
18/05:30pm 31.7 31.3 19.0 47 8.3 NE 19 26 10 14 1003.9 1003.9 0.0
18/05:00pm 31.8 31.4 19.4 47 8.2 NE 20 32 11 17 1004.4 1004.4 0.0
18/04:30pm 32.2 31.8 18.8 45 8.7 ENE 19 28 10 15 1004.5 1004.5 0.0
18/04:00pm 32.5 35.6 21.4 52 7.5 ENE 7 17 4 9 1005.0 1005.0 0.0
18/03:30pm 33.4 35.8 20.9 48 8.4 NW 9 19 5 10 1005.5 1005.5 0.0
18/03:00pm 32.4 33.6 20.0 48 8.2 NW 13 19 7 10 1006.2 1006.2 0.0
18/02:30pm 32.1 33.7 20.7 51 7.6 W 13 17 7 9 1006.8 1006.8 0.0
18/02:00pm 31.5 33.0 19.8 49 7.7 NNW 11 19 6 10 1007.1 1007.1 0.0
18/01:30pm 30.7 32.9 21.2 57 6.4 NNW 11 19 6 10 1007.5 1007.5 0.0
18/01:00pm 30.1 31.1 19.5 53 6.9 NW 13 20 7 11 1008.1 1008.1 0.0
18/12:30pm 29.7 31.6 20.5 57 6.1 WNW 11 19 6 10 1008.6 1008.5 0.0
18/12:00pm 28.4 30.2 19.6 59 5.7 NNW 9 15 5 8 1009.0 1008.9 0.0
18/11:30am 27.3 28.6 20.1 64 4.7 NNW 13 17 7 9 1009.5 1009.4 0.0
18/11:00am 26.0 27.8 20.3 71 3.7 NW 11 15 6 8 1010.0 1009.9 0.0
18/10:30am 24.7 26.8 21.0 80 2.4 NNW 11 15 6 8 1010.0 1009.9 0.0
18/10:00am 23.0 25.2 21.1 89 1.2 NNW 11 15 6 8 1010.3 1010.2 0.0
18/09:53am 22.9 25.3 21.5 92 0.9 NW 11 15 6 8 1010.4 1010.3 0.0
18/09:30am 21.3 22.9 20.8 97 0.3 NW 13 15 7 8 1010.6 1010.5 0.0
18/09:00am 20.9 23.2 20.6 98 0.2 NW 9 15 5 8 1010.7 1010.6 5.8
18/08:30am 20.5 22.7 20.3 99 0.1 NW 9 13 5 7 1010.6 1010.5 5.6
18/08:00am 20.3 22.0 20.1 99 0.1 NW 11 15 6 8 1010.7 1010.6 5.6
18/07:51am 20.4 22.1 20.2 99 0.1 NW 11 13 6 7 1010.6 1010.5 5.6
18/07:30am 19.9 22.7 19.7 99 0.1 NNW 4 9 2 5 1010.4 1010.3 5.6
18/07:00am 19.1 21.5 18.9 99 0.1 NW 4 7 2 4 1010.4 1010.3 5.6
18/06:30am 18.5 20.1 18.2 98 0.2 WNW 7 9 4 5 1010.4 1010.3 5.6
18/06:11am 18.5 20.1 18.2 98 0.2 N 7 7 4 4 1010.1 1010.0 5.6
18/06:00am 18.6 20.2 18.3 98 0.2 NW 7 9 4 5 1010.1 1010.0 5.6
18/05:30am 19.0 21.4 18.7 98 0.2 N 4 9 2 5 1010.0 1009.9 5.6
18/05:00am 19.3 21.2 19.0 98 0.2 N 7 9 4 5 1009.8 1009.7 5.6
18/04:59am 19.4 21.4 19.1 98 0.2 N 7 9 4 5 1009.7 1009.6 5.6
18/04:30am 19.3 20.8 19.0 98 0.2 N 9 11 5 6 1009.7 1009.6 5.6
18/04:00am 19.5 22.8 19.2 98 0.2 CALM 0 0 0 0 1010.0 1009.9 5.6
18/03:56am 19.5 22.8 19.2 98 0.2 CALM 0 0 0 0 1010.0 1009.9 5.6
18/03:30am 19.6 22.9 19.1 97 0.3 CALM 0 0 0 0 1010.2 1010.1 5.6
18/03:00am 20.0 23.5 19.5 97 0.3 CALM 0 0 0 0 1010.2 1010.1 5.6
18/02:45am 20.0 23.5 19.5 97 0.3 CALM 0 0 0 0 1010.3 1010.2 5.6
18/02:30am 19.8 23.2 19.3 97 0.3 CALM 0 0 0 0 1010.4 1010.3 5.6
18/02:16am 19.7 23.0 19.0 96 0.4 CALM 0 0 0 0 1010.6 1010.5 5.6
18/02:00am 19.4 22.5 18.7 96 0.4 CALM 0 0 0 0 1011.0 1010.9 5.6
18/01:30am 19.3 22.3 18.5 95 0.5 CALM 0 0 0 0 1011.0 1010.9 5.6
18/01:00am 19.7 22.9 18.9 95 0.5 CALM 0 0 0 0 1011.3 1011.2 5.6
18/12:30am 20.4 24.0 19.7 96 0.4 CALM 0 0 0 0 1011.6 1011.5 5.6
18/12:00am 20.2 23.5 19.2 94 0.6 CALM 0 0 0 0 1011.9 1011.8 5.6
 
Date/Time
EDT
Temp
°C
App
Temp
°C
Dew
Point
°C
Rel
Hum
%
Delta-T
°C
Wind Press
QNH
hPa
Press
MSL
hPa
Rain since
9am
mm
Dir  Spd
km/h
Gust
km/h
Spd
kts
Gust
kts
17/11:30pm 21.1 25.0 20.3 95 0.5 CALM 0 7 0 4 1011.8 1011.7 5.6
17/11:00pm 21.2 23.8 20.4 95 0.5 NNE 7 9 4 5 1012.2 1012.1 5.6
17/10:30pm 21.6 24.0 20.8 95 0.5 NNE 9 11 5 6 1012.3 1012.2 5.6
17/10:00pm 21.5 24.2 20.3 93 0.8 NNE 6 7 3 4 1012.4 1012.3 5.6
17/09:30pm 21.7 24.4 20.3 92 0.9 NE 6 7 3 4 1012.3 1012.2 5.6
17/09:00pm 21.8 24.3 20.3 91 1.0 ESE 7 9 4 5 1012.1 1012.0 5.6
17/08:30pm 22.2 25.6 20.1 88 1.4 SE 2 6 1 3 1012.1 1012.0 5.6
17/08:00pm 22.5 24.6 20.2 87 1.5 ESE 9 13 5 7 1011.4 1011.3 5.6
17/07:30pm 23.2 25.3 20.2 83 1.9 ENE 9 11 5 6 1011.2 1011.1 5.6
17/07:00pm 23.5 24.8 20.2 82 2.1 ENE 13 15 7 8 1011.2 1011.1 5.6
17/06:30pm 24.5 26.8 20.6 79 2.5 NE 9 13 5 7 1011.2 1011.1 5.6
17/06:00pm 24.4 26.5 20.1 77 2.8 ENE 9 13 5 7 1011.1 1011.0 5.6
17/05:30pm 24.9 28.1 21.2 80 2.4 ESE 6 11 3 6 1010.9 1010.8 5.6
17/05:00pm 24.3 26.9 20.4 79 2.5 SE 7 9 4 5 1011.4 1011.3 5.6
17/04:58pm 24.1 26.6 20.2 79 2.5 SE 7 9 4 5 1011.4 1011.3 5.6
17/04:30pm 23.8 26.5 20.7 83 2.0 W 7 13 4 7 1011.6 1011.5 5.6
17/04:00pm 23.6 25.9 22.0 91 1.1 W 13 19 7 10 1012.1 1012.0 5.6
17/03:55pm 23.1 25.1 21.5 91 1.1 W 13 19 7 10 1012.1 1012.0 5.6
17/03:30pm 22.4 24.6 21.2 93 0.8 NW 11 13 6 7 1011.9 1011.8 5.6
17/03:00pm 22.2 22.4 20.5 90 1.1 NW 20 26 11 14 1012.4 1012.3 5.6
17/02:30pm 22.9 24.5 21.5 92 0.9 NW 15 19 8 10 1013.1 1013.0 5.6
17/02:00pm 22.7 24.3 21.5 93 0.8 NW 15 20 8 11 1013.4 1013.3 5.6
17/01:30pm 22.7 25.9 21.7 94 0.7 NW 7 11 4 6 1013.2 1013.1 5.4
17/01:22pm 22.5 25.0 21.7 95 0.5 NW 11 19 6 10 1013.2 1013.1 5.4
17/01:00pm 22.6 24.4 21.8 95 0.5 NNW 15 19 8 10 1013.3 1013.2 5.0
17/12:46pm 22.6 25.6 21.9 96 0.5 NNW 9 13 5 7 1013.2 1013.1 5.0
17/12:30pm 22.6 25.2 21.9 96 0.5 NW 11 19 6 10 1014.0 1013.9 4.8
17/12:09pm 22.6 24.0 21.9 96 0.5 NE 17 24 9 13 1013.4 1013.3 4.8
17/12:00pm 22.6 24.8 21.9 96 0.5 NNE 13 24 7 13 1013.3 1013.2 4.6
17/11:53am 22.7 26.3 22.0 96 0.5 WNW 6 11 3 6 1014.3 1014.2 4.0
17/11:30am 22.7 26.1 22.0 96 0.5 ESE 7 13 4 7 1014.7 1014.6 2.8
17/11:00am 22.8 25.7 21.8 94 0.7 N 9 11 5 6 1014.5 1014.4 1.8
17/10:30am 22.9 25.7 21.5 92 0.9 ENE 9 13 5 7 1014.6 1014.5 0.4
17/10:00am 22.9 25.4 21.7 93 0.8 ESE 11 15 6 8 1014.1 1014.0 0.4
17/09:51am 22.8 25.2 21.6 93 0.8 E 11 17 6 9 1014.0 1013.9 0.4
17/09:30am 22.8 25.3 21.8 94 0.7 SE 11 13 6 7 1013.7 1013.6 0.2
17/09:15am 22.7 25.5 21.5 93 0.8 SSW 9 11 5 6 1014.4 1014.3 0.0
17/09:00am 22.7 25.3 21.2 91 1.0 SE 9 11 5 6 1014.3 1014.2 0.2
17/08:30am 22.6 25.2 21.2 92 0.9 SE 9 11 5 6 1014.6 1014.5 0.0
17/08:00am 22.4 24.6 21.2 93 0.8 SE 11 15 6 8 1014.1 1014.0 0.0
17/07:50am 22.4 24.6 21.2 93 0.8 SE 11 13 6 7 1014.1 1014.0 0.0
17/07:30am 22.3 24.2 21.3 94 0.7 SE 13 15 7 8 1013.9 1013.8 0.0
17/07:03am 22.3 25.0 21.3 94 0.7 SE 9 11 5 6 1013.8 1013.7 0.0
17/07:00am 22.3 25.0 21.3 94 0.7 SE 9 11 5 6 1013.8 1013.7 0.0
17/06:30am 22.2 25.2 21.2 94 0.7 ESE 7 9 4 5 1013.7 1013.6 0.0
17/06:00am 22.2 25.9 21.4 95 0.5 SSE 4 9 2 5 1013.5 1013.4 0.0
17/05:30am 22.1 24.6 21.1 94 0.7 SSE 9 11 5 6 1013.4 1013.3 0.0
17/05:00am 22.2 24.8 21.2 94 0.7 SE 9 11 5 6 1013.3 1013.2 0.0
17/04:30am 22.2 25.5 20.7 91 1.0 SSW 4 9 2 5 1013.7 1013.6 0.0
17/04:00am 22.1 24.8 20.6 91 1.0 S 7 9 4 5 1013.4 1013.3 0.0
17/03:30am 21.9 24.5 20.4 91 1.0 SSE 7 9 4 5 1013.6 1013.5 0.0
17/03:00am 22.1 24.0 20.6 91 1.0 SSE 11 13 6 7 1013.6 1013.5 0.0
17/02:30am 22.0 24.7 20.6 92 0.9 S 7 9 4 5 1013.9 1013.8 0.0
17/02:00am 22.1 24.8 20.6 91 1.0 SW 7 7 4 4 1014.4 1014.3 0.0
17/01:30am 22.2 24.4 20.5 90 1.1 SE 9 11 5 6 1014.5 1014.4 0.0
17/01:00am 22.6 24.3 20.1 86 1.6 SE 11 13 6 7 1014.4 1014.3 0.0
17/12:30am 22.7 25.0 19.9 84 1.8 ESE 7 9 4 5 1014.7 1014.6 0.0
17/12:00am 22.8 26.5 20.0 84 1.8 CALM 0 0 0 0 1015.0 1014.9 0.0
 
Date/Time
EDT
Temp
°C
App
Temp
°C
Dew
Point
°C
Rel
Hum
%
Delta-T
°C
Wind Press
QNH
hPa
Press
MSL
hPa
Rain since
9am
mm
Dir  Spd
km/h
Gust
km/h
Spd
kts
Gust
kts
16/11:30pm 22.8 25.0 19.6 82 2.0 ENE 7 9 4 5 1014.8 1014.7 0.0
16/11:00pm 22.8 25.0 19.6 82 2.0 ENE 7 9 4 5 1015.1 1015.0 0.0
16/10:30pm 23.1 25.2 19.3 79 2.4 ENE 7 9 4 5 1015.2 1015.1 0.0
16/10:00pm 23.0 26.1 19.4 80 2.3 E 2 9 1 5 1015.1 1015.0 0.0
16/09:30pm 23.3 25.2 19.0 77 2.7 ENE 7 9 4 5 1015.2 1015.1 0.0
16/09:00pm 23.4 24.4 18.7 75 3.0 E 11 15 6 8 1014.9 1014.8 0.0
16/08:30pm 23.0 25.1 19.4 80 2.3 E 7 11 4 6 1014.8 1014.7 0.0
16/08:00pm 23.0 24.7 19.4 80 2.3 ENE 9 11 5 6 1014.5 1014.4 0.0
16/07:30pm 23.1 24.3 19.1 78 2.5 ENE 11 15 6 8 1014.6 1014.5 0.0
16/07:00pm 23.3 24.1 19.0 77 2.7 ESE 13 17 7 9 1014.6 1014.5 0.0
16/06:30pm 23.3 23.8 19.2 78 2.6 ESE 15 19 8 10 1014.1 1014.0 0.0
16/06:00pm 23.4 23.9 20.0 81 2.2 SSE 17 20 9 11 1013.7 1013.6 0.0
16/05:30pm 23.6 23.5 19.5 78 2.6 SE 19 24 10 13 1014.0 1013.9 0.0
16/05:00pm 24.4 24.1 19.2 73 3.3 SE 19 26 10 14 1013.6 1013.5 0.0
16/04:30pm 24.8 23.0 18.7 69 3.9 SSE 26 32 14 17 1013.3 1013.2 0.0
16/04:00pm 25.0 23.5 19.4 71 3.6 SSE 26 33 14 18 1013.3 1013.2 0.0
16/03:30pm 24.9 22.7 18.8 69 3.9 SSE 28 35 15 19 1013.4 1013.3 0.0
16/03:00pm 25.1 23.9 19.2 70 3.8 SSE 24 30 13 16 1013.5 1013.4 0.0
16/02:30pm 25.0 23.8 18.4 66 4.2 SSE 22 28 12 15 1013.7 1013.6 0.0
16/02:00pm 25.2 24.7 20.0 73 3.4 SSE 22 32 12 17 1013.8 1013.7 0.0
16/01:30pm 25.0 24.5 19.1 70 3.8 SSE 20 28 11 15 1014.0 1013.9 0.0
16/01:00pm 24.6 24.8 19.4 73 3.3 SSE 17 24 9 13 1014.0 1013.9 0.0
16/12:30pm 25.0 24.3 18.2 66 4.3 SSE 19 24 10 13 1014.0 1013.9 0.0
16/12:00pm 25.1 24.2 17.8 64 4.6 SSE 19 26 10 14 1014.1 1014.0 0.0
16/11:30am 24.6 23.8 18.5 69 3.9 SSE 20 28 11 15 1014.3 1014.2 0.0
16/11:00am 24.2 23.3 19.1 73 3.3 S 22 30 12 16 1014.3 1014.2 0.0
16/10:30am 24.0 23.7 19.1 74 3.1 S 19 26 10 14 1014.4 1014.3 0.0
16/10:00am 24.5 24.2 19.1 72 3.4 S 19 26 10 14 1014.0 1013.9 0.0
16/09:30am 24.1 23.6 19.2 74 3.1 S 20 26 11 14 1013.8 1013.7 0.0
16/09:03am 23.9 24.0 19.2 75 3.0 SSW 17 22 9 12 1013.7 1013.6 0.0
16/09:00am 23.8 24.7 19.3 76 2.9 SSW 13 22 7 12 1013.7 1013.6 0.2
16/08:45am 23.0 24.6 20.0 83 1.9 SSW 11 15 6 8 1013.7 1013.6 0.2
16/08:43am 22.9 24.5 19.9 83 1.9 SSW 11 15 6 8 1013.7 1013.6 0.2
16/08:30am 22.7 24.3 19.9 84 1.8 SSW 11 17 6 9 1013.5 1013.4 0.2
16/08:24am 22.8 24.9 20.1 85 1.7 SSW 9 13 5 7 1013.4 1013.3 0.2
16/08:00am 22.1 24.5 20.0 88 1.3 SW 7 9 4 5 1013.2 1013.1 0.2
16/07:30am 20.9 24.3 19.4 91 1.0 CALM 0 0 0 0 1012.8 1012.7 0.2
16/07:00am 20.5 22.1 19.2 92 0.8 WNW 9 11 5 6 1012.6 1012.5 0.2
16/06:30am 20.3 22.2 19.0 92 0.8 NNW 7 9 4 5 1012.1 1012.0 0.2
16/06:00am 20.2 22.1 19.0 93 0.8 NW 7 9 4 5 1011.5 1011.4 0.2
16/05:30am 20.2 22.7 19.0 93 0.8 W 4 9 2 5 1011.3 1011.2 0.2
16/05:00am 20.0 23.2 18.8 93 0.8 CALM 0 0 0 0 1010.9 1010.8 0.2
16/04:30am 19.8 22.9 18.6 93 0.7 CALM 0 0 0 0 1010.9 1010.8 0.2
16/04:00am 20.1 23.2 18.6 91 0.9 CALM 0 0 0 0 1011.0 1010.9 0.2
16/03:30am 20.9 23.3 18.8 88 1.3 WSW 4 11 2 6 1010.9 1010.8 0.2

Latest Capital City Observations: Canberra | Sydney | Melbourne | Brisbane | Adelaide | Perth | Hobart | Darwin

Other formats

Comma delimited format used in spreadsheet applications
http://www.bom.gov.au/fwo/IDN60901/IDN60901.94776.axf

JavaScript Object Notation format (JSON) in row-major order
http://www.bom.gov.au/fwo/IDN60901/IDN60901.94776.json

Data quality

Most of these data are generated automatically and are frequently updated. Quality checks on data are not normally performed. It is possible for incorrect values to appear. Refer to information at About Latest Weather Observations and please check the disclaimer before using these data.